sensor_id;sensor_type;location;lat;lon;timestamp;P1;durP1;ratioP1;P2;durP2;ratioP2
32321;SDS011;61553;48.994;8.940;2024-01-06T00:01:23;14.10;;;5.53;;
32321;SDS011;61553;48.994;8.940;2024-01-06T00:03:48;11.20;;;4.93;;
32321;SDS011;61553;48.994;8.940;2024-01-06T00:06:14;11.13;;;5.70;;
32321;SDS011;61553;48.994;8.940;2024-01-06T00:08:40;10.63;;;4.85;;
32321;SDS011;61553;48.994;8.940;2024-01-06T00:11:05;7.90;;;3.92;;
32321;SDS011;61553;48.994;8.940;2024-01-06T00:13:31;9.15;;;4.20;;
32321;SDS011;61553;48.994;8.940;2024-01-06T00:15:56;7.07;;;3.83;;
32321;SDS011;61553;48.994;8.940;2024-01-06T00:18:22;12.45;;;5.40;;
32321;SDS011;61553;48.994;8.940;2024-01-06T00:20:48;12.70;;;5.10;;
32321;SDS011;61553;48.994;8.940;2024-01-06T00:23:13;12.68;;;5.88;;
32321;SDS011;61553;48.994;8.940;2024-01-06T00:25:39;9.60;;;5.50;;
32321;SDS011;61553;48.994;8.940;2024-01-06T00:28:04;13.23;;;6.13;;
32321;SDS011;61553;48.994;8.940;2024-01-06T00:30:30;8.70;;;5.25;;
32321;SDS011;61553;48.994;8.940;2024-01-06T00:32:56;9.38;;;5.95;;
32321;SDS011;61553;48.994;8.940;2024-01-06T00:35:21;16.80;;;6.57;;
32321;SDS011;61553;48.994;8.940;2024-01-06T00:37:47;14.45;;;7.85;;
32321;SDS011;61553;48.994;8.940;2024-01-06T00:40:13;17.27;;;7.68;;
32321;SDS011;61553;48.994;8.940;2024-01-06T00:42:38;13.23;;;5.63;;
32321;SDS011;61553;48.994;8.940;2024-01-06T00:45:04;11.95;;;6.03;;
32321;SDS011;61553;48.994;8.940;2024-01-06T00:47:30;16.23;;;6.80;;
32321;SDS011;61553;48.994;8.940;2024-01-06T00:49:56;12.90;;;5.90;;
32321;SDS011;61553;48.994;8.940;2024-01-06T00:52:22;14.93;;;7.13;;
32321;SDS011;61553;48.994;8.940;2024-01-06T00:54:47;17.42;;;7.90;;
32321;SDS011;61553;48.994;8.940;2024-01-06T00:57:13;16.27;;;8.38;;
32321;SDS011;61553;48.994;8.940;2024-01-06T00:59:38;16.00;;;8.35;;
32321;SDS011;61553;48.994;8.940;2024-01-06T01:02:04;20.50;;;11.27;;
32321;SDS011;61553;48.994;8.940;2024-01-06T01:04:30;19.55;;;9.88;;
32321;SDS011;61553;48.994;8.940;2024-01-06T01:06:55;17.08;;;9.90;;
32321;SDS011;61553;48.994;8.940;2024-01-06T01:09:21;17.80;;;9.38;;
32321;SDS011;61553;48.994;8.940;2024-01-06T01:11:46;16.23;;;8.40;;
32321;SDS011;61553;48.994;8.940;2024-01-06T01:14:12;15.63;;;7.10;;
32321;SDS011;61553;48.994;8.940;2024-01-06T01:16:38;15.07;;;7.22;;
32321;SDS011;61553;48.994;8.940;2024-01-06T01:19:03;15.23;;;7.25;;
32321;SDS011;61553;48.994;8.940;2024-01-06T01:21:29;14.45;;;7.63;;
32321;SDS011;61553;48.994;8.940;2024-01-06T01:23:55;14.05;;;7.35;;
32321;SDS011;61553;48.994;8.940;2024-01-06T01:26:20;14.05;;;7.50;;
32321;SDS011;61553;48.994;8.940;2024-01-06T01:28:46;15.23;;;7.03;;
32321;SDS011;61553;48.994;8.940;2024-01-06T01:31:12;12.48;;;6.22;;
32321;SDS011;61553;48.994;8.940;2024-01-06T01:33:38;14.10;;;7.05;;
32321;SDS011;61553;48.994;8.940;2024-01-06T01:36:04;14.82;;;8.57;;
32321;SDS011;61553;48.994;8.940;2024-01-06T01:38:30;14.60;;;8.38;;
32321;SDS011;61553;48.994;8.940;2024-01-06T01:40:55;20.35;;;9.48;;
32321;SDS011;61553;48.994;8.940;2024-01-06T01:43:21;21.83;;;10.00;;
32321;SDS011;61553;48.994;8.940;2024-01-06T01:45:49;16.52;;;8.63;;
32321;SDS011;61553;48.994;8.940;2024-01-06T01:48:18;20.10;;;10.15;;
32321;SDS011;61553;48.994;8.940;2024-01-06T01:50:47;27.30;;;11.45;;
32321;SDS011;61553;48.994;8.940;2024-01-06T01:53:13;17.85;;;9.10;;
32321;SDS011;61553;48.994;8.940;2024-01-06T01:55:40;17.80;;;8.93;;
32321;SDS011;61553;48.994;8.940;2024-01-06T01:58:07;17.65;;;8.07;;
32321;SDS011;61553;48.994;8.940;2024-01-06T02:00:34;20.15;;;10.23;;
32321;SDS011;61553;48.994;8.940;2024-01-06T02:02:59;16.55;;;8.15;;
32321;SDS011;61553;48.994;8.940;2024-01-06T02:05:28;19.35;;;9.57;;
32321;SDS011;61553;48.994;8.940;2024-01-06T02:07:53;22.70;;;11.43;;
32321;SDS011;61553;48.994;8.940;2024-01-06T02:10:19;17.33;;;9.25;;
32321;SDS011;61553;48.994;8.940;2024-01-06T02:12:44;12.93;;;7.25;;
32321;SDS011;61553;48.994;8.940;2024-01-06T02:15:10;14.77;;;8.20;;
32321;SDS011;61553;48.994;8.940;2024-01-06T02:17:36;15.25;;;6.55;;
32321;SDS011;61553;48.994;8.940;2024-01-06T02:20:01;14.85;;;6.72;;
32321;SDS011;61553;48.994;8.940;2024-01-06T02:22:27;11.48;;;6.35;;
32321;SDS011;61553;48.994;8.940;2024-01-06T02:24:53;14.82;;;6.03;;
32321;SDS011;61553;48.994;8.940;2024-01-06T02:27:19;13.13;;;6.55;;
32321;SDS011;61553;48.994;8.940;2024-01-06T02:29:44;11.48;;;5.50;;
32321;SDS011;61553;48.994;8.940;2024-01-06T02:32:10;12.73;;;3.97;;
32321;SDS011;61553;48.994;8.940;2024-01-06T02:34:35;10.15;;;3.88;;
32321;SDS011;61553;48.994;8.940;2024-01-06T02:37:03;7.93;;;3.50;;
32321;SDS011;61553;48.994;8.940;2024-01-06T02:39:28;8.07;;;2.70;;
32321;SDS011;61553;48.994;8.940;2024-01-06T02:41:54;5.68;;;2.33;;
32321;SDS011;61553;48.994;8.940;2024-01-06T02:44:20;12.57;;;3.20;;
32321;SDS011;61553;48.994;8.940;2024-01-06T02:46:45;6.28;;;1.63;;
32321;SDS011;61553;48.994;8.940;2024-01-06T02:49:11;6.07;;;2.63;;
32321;SDS011;61553;48.994;8.940;2024-01-06T02:51:36;9.02;;;2.35;;
32321;SDS011;61553;48.994;8.940;2024-01-06T02:54:02;8.10;;;2.30;;
32321;SDS011;61553;48.994;8.940;2024-01-06T02:56:28;4.80;;;1.85;;
32321;SDS011;61553;48.994;8.940;2024-01-06T02:58:54;8.82;;;2.05;;
32321;SDS011;61553;48.994;8.940;2024-01-06T03:01:19;7.78;;;1.95;;
32321;SDS011;61553;48.994;8.940;2024-01-06T03:03:45;4.95;;;1.70;;
32321;SDS011;61553;48.994;8.940;2024-01-06T03:06:11;8.15;;;2.30;;
32321;SDS011;61553;48.994;8.940;2024-01-06T03:08:36;5.55;;;2.05;;
32321;SDS011;61553;48.994;8.940;2024-01-06T03:11:02;5.32;;;1.67;;
32321;SDS011;61553;48.994;8.940;2024-01-06T03:13:30;9.65;;;2.20;;
32321;SDS011;61553;48.994;8.940;2024-01-06T03:15:56;14.07;;;2.17;;
32321;SDS011;61553;48.994;8.940;2024-01-06T03:18:21;9.25;;;2.22;;
32321;SDS011;61553;48.994;8.940;2024-01-06T03:20:47;7.78;;;1.83;;
32321;SDS011;61553;48.994;8.940;2024-01-06T03:23:12;5.80;;;1.83;;
32321;SDS011;61553;48.994;8.940;2024-01-06T03:25:38;5.68;;;1.85;;
32321;SDS011;61553;48.994;8.940;2024-01-06T03:28:03;16.02;;;7.55;;
32321;SDS011;61553;48.994;8.940;2024-01-06T03:30:29;20.15;;;8.25;;
32321;SDS011;61553;48.994;8.940;2024-01-06T03:32:55;16.63;;;4.88;;
32321;SDS011;61553;48.994;8.940;2024-01-06T03:35:20;23.73;;;11.52;;
32321;SDS011;61553;48.994;8.940;2024-01-06T03:37:46;7.53;;;2.72;;
32321;SDS011;61553;48.994;8.940;2024-01-06T03:40:12;21.95;;;8.38;;
32321;SDS011;61553;48.994;8.940;2024-01-06T03:42:37;15.77;;;7.88;;
32321;SDS011;61553;48.994;8.940;2024-01-06T03:45:03;9.90;;;5.50;;
32321;SDS011;61553;48.994;8.940;2024-01-06T03:47:29;9.25;;;2.90;;
32321;SDS011;61553;48.994;8.940;2024-01-06T03:49:54;6.57;;;2.45;;
32321;SDS011;61553;48.994;8.940;2024-01-06T03:52:20;11.70;;;3.90;;
32321;SDS011;61553;48.994;8.940;2024-01-06T03:54:46;5.93;;;2.53;;
32321;SDS011;61553;48.994;8.940;2024-01-06T03:57:11;7.90;;;3.00;;
32321;SDS011;61553;48.994;8.940;2024-01-06T03:59:37;6.43;;;1.90;;
32321;SDS011;61553;48.994;8.940;2024-01-06T04:02:02;13.88;;;2.20;;
32321;SDS011;61553;48.994;8.940;2024-01-06T04:04:28;10.35;;;1.50;;
32321;SDS011;61553;48.994;8.940;2024-01-06T04:06:54;6.88;;;2.55;;
32321;SDS011;61553;48.994;8.940;2024-01-06T04:09:19;5.18;;;1.73;;
32321;SDS011;61553;48.994;8.940;2024-01-06T04:11:45;13.68;;;2.20;;
32321;SDS011;61553;48.994;8.940;2024-01-06T04:14:11;7.70;;;1.85;;
32321;SDS011;61553;48.994;8.940;2024-01-06T04:16:37;5.53;;;2.38;;
32321;SDS011;61553;48.994;8.940;2024-01-06T04:19:02;6.10;;;1.90;;
32321;SDS011;61553;48.994;8.940;2024-01-06T04:21:28;6.15;;;2.00;;
32321;SDS011;61553;48.994;8.940;2024-01-06T04:23:54;4.93;;;2.10;;
32321;SDS011;61553;48.994;8.940;2024-01-06T04:26:21;5.93;;;1.90;;
32321;SDS011;61553;48.994;8.940;2024-01-06T04:28:46;10.77;;;2.05;;
32321;SDS011;61553;48.994;8.940;2024-01-06T04:31:12;9.57;;;2.13;;
32321;SDS011;61553;48.994;8.940;2024-01-06T04:33:37;7.80;;;1.73;;
32321;SDS011;61553;48.994;8.940;2024-01-06T04:36:05;5.15;;;1.88;;
32321;SDS011;61553;48.994;8.940;2024-01-06T04:38:32;11.90;;;2.83;;
32321;SDS011;61553;48.994;8.940;2024-01-06T04:40:57;6.97;;;2.10;;
32321;SDS011;61553;48.994;8.940;2024-01-06T04:43:23;13.18;;;2.03;;
32321;SDS011;61553;48.994;8.940;2024-01-06T04:45:48;6.47;;;2.20;;
32321;SDS011;61553;48.994;8.940;2024-01-06T04:48:15;8.38;;;2.00;;
32321;SDS011;61553;48.994;8.940;2024-01-06T04:50:41;13.43;;;2.20;;
32321;SDS011;61553;48.994;8.940;2024-01-06T04:53:07;8.00;;;2.13;;
32321;SDS011;61553;48.994;8.940;2024-01-06T04:55:33;10.95;;;2.42;;
32321;SDS011;61553;48.994;8.940;2024-01-06T04:57:59;10.68;;;2.50;;
32321;SDS011;61553;48.994;8.940;2024-01-06T05:00:24;9.68;;;2.20;;
32321;SDS011;61553;48.994;8.940;2024-01-06T05:02:51;4.57;;;2.35;;
32321;SDS011;61553;48.994;8.940;2024-01-06T05:05:16;7.18;;;2.90;;
32321;SDS011;61553;48.994;8.940;2024-01-06T05:07:42;10.18;;;2.72;;
32321;SDS011;61553;48.994;8.940;2024-01-06T05:10:08;5.90;;;2.65;;
32321;SDS011;61553;48.994;8.940;2024-01-06T05:12:33;7.68;;;2.65;;
32321;SDS011;61553;48.994;8.940;2024-01-06T05:14:59;7.22;;;2.40;;
32321;SDS011;61553;48.994;8.940;2024-01-06T05:17:25;8.45;;;2.72;;
32321;SDS011;61553;48.994;8.940;2024-01-06T05:19:50;5.35;;;2.65;;
32321;SDS011;61553;48.994;8.940;2024-01-06T05:22:16;11.80;;;3.72;;
32321;SDS011;61553;48.994;8.940;2024-01-06T05:24:41;8.05;;;3.15;;
32321;SDS011;61553;48.994;8.940;2024-01-06T05:27:07;14.38;;;4.22;;
32321;SDS011;61553;48.994;8.940;2024-01-06T05:29:33;8.40;;;3.05;;
32321;SDS011;61553;48.994;8.940;2024-01-06T05:31:58;6.57;;;2.53;;
32321;SDS011;61553;48.994;8.940;2024-01-06T05:34:24;6.45;;;2.22;;
32321;SDS011;61553;48.994;8.940;2024-01-06T05:36:49;9.10;;;2.15;;
32321;SDS011;61553;48.994;8.940;2024-01-06T05:39:16;9.90;;;2.45;;
32321;SDS011;61553;48.994;8.940;2024-01-06T05:41:42;8.75;;;2.67;;
32321;SDS011;61553;48.994;8.940;2024-01-06T05:44:08;8.65;;;2.60;;
32321;SDS011;61553;48.994;8.940;2024-01-06T05:46:33;9.75;;;2.70;;
32321;SDS011;61553;48.994;8.940;2024-01-06T05:48:59;6.85;;;2.88;;
32321;SDS011;61553;48.994;8.940;2024-01-06T05:51:25;9.75;;;2.63;;
32321;SDS011;61553;48.994;8.940;2024-01-06T05:53:51;5.50;;;2.42;;
32321;SDS011;61553;48.994;8.940;2024-01-06T05:56:26;9.68;;;2.95;;
32321;SDS011;61553;48.994;8.940;2024-01-06T05:58:52;8.00;;;2.10;;
32321;SDS011;61553;48.994;8.940;2024-01-06T06:01:19;6.93;;;2.47;;
32321;SDS011;61553;48.994;8.940;2024-01-06T06:03:46;8.18;;;2.63;;
32321;SDS011;61553;48.994;8.940;2024-01-06T06:06:12;7.55;;;2.47;;
32321;SDS011;61553;48.994;8.940;2024-01-06T06:08:37;10.20;;;3.00;;
32321;SDS011;61553;48.994;8.940;2024-01-06T06:11:04;8.60;;;2.90;;
32321;SDS011;61553;48.994;8.940;2024-01-06T06:13:36;6.65;;;2.58;;
32321;SDS011;61553;48.994;8.940;2024-01-06T06:16:03;6.63;;;2.92;;
32321;SDS011;61553;48.994;8.940;2024-01-06T06:18:29;16.67;;;4.95;;
32321;SDS011;61553;48.994;8.940;2024-01-06T06:20:55;18.92;;;5.63;;
32321;SDS011;61553;48.994;8.940;2024-01-06T06:23:20;11.30;;;4.20;;
32321;SDS011;61553;48.994;8.940;2024-01-06T06:25:46;8.40;;;3.80;;
32321;SDS011;61553;48.994;8.940;2024-01-06T06:28:11;11.23;;;2.97;;
32321;SDS011;61553;48.994;8.940;2024-01-06T06:30:37;5.60;;;2.42;;
32321;SDS011;61553;48.994;8.940;2024-01-06T06:33:03;8.30;;;3.10;;
32321;SDS011;61553;48.994;8.940;2024-01-06T06:35:29;12.07;;;4.97;;
32321;SDS011;61553;48.994;8.940;2024-01-06T06:37:54;12.23;;;3.47;;
32321;SDS011;61553;48.994;8.940;2024-01-06T06:40:20;8.63;;;3.88;;
32321;SDS011;61553;48.994;8.940;2024-01-06T06:42:46;7.53;;;3.17;;
32321;SDS011;61553;48.994;8.940;2024-01-06T06:45:11;8.30;;;2.92;;
32321;SDS011;61553;48.994;8.940;2024-01-06T06:47:37;10.30;;;3.28;;
32321;SDS011;61553;48.994;8.940;2024-01-06T06:50:03;5.80;;;2.83;;
32321;SDS011;61553;48.994;8.940;2024-01-06T06:52:29;7.20;;;2.75;;
32321;SDS011;61553;48.994;8.940;2024-01-06T06:54:54;7.63;;;3.00;;
32321;SDS011;61553;48.994;8.940;2024-01-06T06:57:20;7.10;;;2.78;;
32321;SDS011;61553;48.994;8.940;2024-01-06T06:59:45;12.18;;;4.07;;
32321;SDS011;61553;48.994;8.940;2024-01-06T07:02:11;9.25;;;2.88;;
32321;SDS011;61553;48.994;8.940;2024-01-06T07:04:37;7.35;;;2.90;;
32321;SDS011;61553;48.994;8.940;2024-01-06T07:07:02;5.45;;;2.70;;
32321;SDS011;61553;48.994;8.940;2024-01-06T07:09:28;9.77;;;5.28;;
32321;SDS011;61553;48.994;8.940;2024-01-06T07:11:53;13.63;;;5.43;;
32321;SDS011;61553;48.994;8.940;2024-01-06T07:14:19;45.65;;;24.23;;
32321;SDS011;61553;48.994;8.940;2024-01-06T07:16:45;21.98;;;15.43;;
32321;SDS011;61553;48.994;8.940;2024-01-06T07:19:10;21.17;;;12.88;;
32321;SDS011;61553;48.994;8.940;2024-01-06T07:21:36;12.98;;;6.00;;
32321;SDS011;61553;48.994;8.940;2024-01-06T07:24:02;11.85;;;6.15;;
32321;SDS011;61553;48.994;8.940;2024-01-06T07:26:28;10.55;;;4.03;;
32321;SDS011;61553;48.994;8.940;2024-01-06T07:28:54;12.80;;;7.20;;
32321;SDS011;61553;48.994;8.940;2024-01-06T07:31:20;13.50;;;5.65;;
32321;SDS011;61553;48.994;8.940;2024-01-06T07:33:45;21.95;;;12.85;;
32321;SDS011;61553;48.994;8.940;2024-01-06T07:36:11;14.20;;;8.20;;
32321;SDS011;61553;48.994;8.940;2024-01-06T07:38:37;10.43;;;5.45;;
32321;SDS011;61553;48.994;8.940;2024-01-06T07:41:02;8.88;;;5.07;;
32321;SDS011;61553;48.994;8.940;2024-01-06T07:43:29;10.00;;;4.00;;
32321;SDS011;61553;48.994;8.940;2024-01-06T07:45:55;10.93;;;4.57;;
32321;SDS011;61553;48.994;8.940;2024-01-06T07:48:21;15.45;;;4.80;;
32321;SDS011;61553;48.994;8.940;2024-01-06T07:50:47;9.75;;;3.78;;
32321;SDS011;61553;48.994;8.940;2024-01-06T07:53:12;10.23;;;5.88;;
32321;SDS011;61553;48.994;8.940;2024-01-06T07:55:41;14.75;;;6.07;;
32321;SDS011;61553;48.994;8.940;2024-01-06T07:58:06;13.75;;;5.55;;
32321;SDS011;61553;48.994;8.940;2024-01-06T08:00:32;13.15;;;6.30;;
32321;SDS011;61553;48.994;8.940;2024-01-06T08:02:57;14.68;;;4.80;;
32321;SDS011;61553;48.994;8.940;2024-01-06T08:05:23;9.15;;;4.55;;
32321;SDS011;61553;48.994;8.940;2024-01-06T08:07:50;11.52;;;5.53;;
32321;SDS011;61553;48.994;8.940;2024-01-06T08:10:16;9.57;;;4.28;;
32321;SDS011;61553;48.994;8.940;2024-01-06T08:12:42;14.88;;;5.25;;
32321;SDS011;61553;48.994;8.940;2024-01-06T08:15:08;8.25;;;3.83;;
32321;SDS011;61553;48.994;8.940;2024-01-06T08:17:34;11.52;;;5.55;;
32321;SDS011;61553;48.994;8.940;2024-01-06T08:20:00;12.35;;;6.53;;
32321;SDS011;61553;48.994;8.940;2024-01-06T08:22:28;10.27;;;5.00;;
32321;SDS011;61553;48.994;8.940;2024-01-06T08:24:54;10.25;;;4.03;;
32321;SDS011;61553;48.994;8.940;2024-01-06T08:27:19;8.52;;;4.45;;
32321;SDS011;61553;48.994;8.940;2024-01-06T08:29:46;10.40;;;3.97;;
32321;SDS011;61553;48.994;8.940;2024-01-06T08:32:12;12.50;;;3.45;;
32321;SDS011;61553;48.994;8.940;2024-01-06T08:34:39;9.57;;;4.43;;
32321;SDS011;61553;48.994;8.940;2024-01-06T08:37:05;10.73;;;3.83;;
32321;SDS011;61553;48.994;8.940;2024-01-06T08:39:31;10.23;;;4.03;;
32321;SDS011;61553;48.994;8.940;2024-01-06T08:41:57;8.23;;;3.67;;
32321;SDS011;61553;48.994;8.940;2024-01-06T08:44:22;6.78;;;3.70;;
32321;SDS011;61553;48.994;8.940;2024-01-06T08:46:48;7.57;;;3.78;;
32321;SDS011;61553;48.994;8.940;2024-01-06T08:49:14;10.23;;;3.72;;
32321;SDS011;61553;48.994;8.940;2024-01-06T08:51:40;17.38;;;7.53;;
32321;SDS011;61553;48.994;8.940;2024-01-06T08:54:05;28.08;;;10.65;;
32321;SDS011;61553;48.994;8.940;2024-01-06T08:56:31;17.70;;;6.03;;
32321;SDS011;61553;48.994;8.940;2024-01-06T08:58:58;7.97;;;4.00;;
32321;SDS011;61553;48.994;8.940;2024-01-06T09:01:24;8.60;;;3.70;;
32321;SDS011;61553;48.994;8.940;2024-01-06T09:03:49;10.02;;;4.45;;
32321;SDS011;61553;48.994;8.940;2024-01-06T09:06:15;9.00;;;4.60;;
32321;SDS011;61553;48.994;8.940;2024-01-06T09:08:41;10.00;;;5.10;;
32321;SDS011;61553;48.994;8.940;2024-01-06T09:11:06;9.88;;;5.05;;
32321;SDS011;61553;48.994;8.940;2024-01-06T09:13:32;11.93;;;5.63;;
32321;SDS011;61553;48.994;8.940;2024-01-06T09:15:58;8.63;;;5.95;;
32321;SDS011;61553;48.994;8.940;2024-01-06T09:18:25;8.35;;;4.85;;
32321;SDS011;61553;48.994;8.940;2024-01-06T09:20:51;6.40;;;3.50;;
32321;SDS011;61553;48.994;8.940;2024-01-06T09:23:17;9.20;;;4.10;;
32321;SDS011;61553;48.994;8.940;2024-01-06T09:25:43;11.23;;;4.40;;
32321;SDS011;61553;48.994;8.940;2024-01-06T09:28:08;7.80;;;3.90;;
32321;SDS011;61553;48.994;8.940;2024-01-06T09:30:35;9.82;;;3.72;;
32321;SDS011;61553;48.994;8.940;2024-01-06T09:33:02;9.73;;;3.67;;
32321;SDS011;61553;48.994;8.940;2024-01-06T09:35:28;6.93;;;3.10;;
32321;SDS011;61553;48.994;8.940;2024-01-06T09:37:53;9.70;;;3.80;;
32321;SDS011;61553;48.994;8.940;2024-01-06T09:40:21;8.77;;;3.53;;
32321;SDS011;61553;48.994;8.940;2024-01-06T09:42:48;9.77;;;3.90;;
32321;SDS011;61553;48.994;8.940;2024-01-06T09:45:18;8.43;;;3.83;;
32321;SDS011;61553;48.994;8.940;2024-01-06T09:47:47;8.40;;;4.05;;
32321;SDS011;61553;48.994;8.940;2024-01-06T09:50:14;7.30;;;3.70;;
32321;SDS011;61553;48.994;8.940;2024-01-06T09:52:45;8.55;;;3.63;;
32321;SDS011;61553;48.994;8.940;2024-01-06T09:55:17;10.52;;;5.15;;
32321;SDS011;61553;48.994;8.940;2024-01-06T09:57:53;20.40;;;9.98;;
32321;SDS011;61553;48.994;8.940;2024-01-06T10:00:19;11.35;;;5.45;;
32321;SDS011;61553;48.994;8.940;2024-01-06T10:02:49;9.55;;;4.57;;
32321;SDS011;61553;48.994;8.940;2024-01-06T10:05:16;11.82;;;4.82;;
32321;SDS011;61553;48.994;8.940;2024-01-06T10:07:42;8.07;;;4.40;;
32321;SDS011;61553;48.994;8.940;2024-01-06T10:10:12;10.95;;;4.65;;
32321;SDS011;61553;48.994;8.940;2024-01-06T10:12:38;10.45;;;4.68;;
32321;SDS011;61553;48.994;8.940;2024-01-06T10:15:05;8.57;;;4.47;;
32321;SDS011;61553;48.994;8.940;2024-01-06T10:17:32;9.02;;;4.50;;
32321;SDS011;61553;48.994;8.940;2024-01-06T10:19:59;8.32;;;4.55;;
32321;SDS011;61553;48.994;8.940;2024-01-06T10:22:25;8.05;;;4.53;;
32321;SDS011;61553;48.994;8.940;2024-01-06T10:24:50;8.32;;;4.20;;
32321;SDS011;61553;48.994;8.940;2024-01-06T10:27:16;11.35;;;4.90;;
32321;SDS011;61553;48.994;8.940;2024-01-06T10:29:42;8.45;;;4.93;;
32321;SDS011;61553;48.994;8.940;2024-01-06T10:32:07;9.65;;;5.10;;
32321;SDS011;61553;48.994;8.940;2024-01-06T10:34:33;8.07;;;4.55;;
32321;SDS011;61553;48.994;8.940;2024-01-06T10:37:01;10.50;;;4.88;;
32321;SDS011;61553;48.994;8.940;2024-01-06T10:39:27;9.90;;;5.43;;
32321;SDS011;61553;48.994;8.940;2024-01-06T10:41:54;12.30;;;5.03;;
32321;SDS011;61553;48.994;8.940;2024-01-06T10:44:20;14.75;;;5.10;;
32321;SDS011;61553;48.994;8.940;2024-01-06T10:46:46;9.48;;;4.60;;
32321;SDS011;61553;48.994;8.940;2024-01-06T10:49:14;13.55;;;4.53;;
32321;SDS011;61553;48.994;8.940;2024-01-06T10:51:42;8.70;;;5.20;;
32321;SDS011;61553;48.994;8.940;2024-01-06T10:54:11;7.93;;;4.65;;
32321;SDS011;61553;48.994;8.940;2024-01-06T10:56:38;8.15;;;4.72;;
32321;SDS011;61553;48.994;8.940;2024-01-06T10:59:03;60.47;;;18.33;;
32321;SDS011;61553;48.994;8.940;2024-01-06T11:01:29;15.60;;;7.15;;
32321;SDS011;61553;48.994;8.940;2024-01-06T11:03:56;8.27;;;4.25;;
32321;SDS011;61553;48.994;8.940;2024-01-06T11:06:23;7.65;;;4.47;;
32321;SDS011;61553;48.994;8.940;2024-01-06T11:11:39;18.77;;;8.00;;
32321;SDS011;61553;48.994;8.940;2024-01-06T11:14:18;15.30;;;7.55;;
32321;SDS011;61553;48.994;8.940;2024-01-06T11:16:49;8.88;;;5.68;;
32321;SDS011;61553;48.994;8.940;2024-01-06T11:19:57;10.63;;;5.80;;
32321;SDS011;61553;48.994;8.940;2024-01-06T11:24:43;6.72;;;4.07;;
32321;SDS011;61553;48.994;8.940;2024-01-06T11:27:17;8.60;;;3.85;;
32321;SDS011;61553;48.994;8.940;2024-01-06T11:29:47;9.27;;;4.88;;
32321;SDS011;61553;48.994;8.940;2024-01-06T11:32:16;6.75;;;4.10;;
32321;SDS011;61553;48.994;8.940;2024-01-06T11:34:46;9.52;;;4.50;;
32321;SDS011;61553;48.994;8.940;2024-01-06T11:37:14;16.58;;;8.00;;
32321;SDS011;61553;48.994;8.940;2024-01-06T11:39:42;12.77;;;5.80;;
32321;SDS011;61553;48.994;8.940;2024-01-06T11:42:10;8.77;;;5.07;;
32321;SDS011;61553;48.994;8.940;2024-01-06T11:44:37;10.27;;;5.22;;
32321;SDS011;61553;48.994;8.940;2024-01-06T11:47:03;16.20;;;7.13;;
32321;SDS011;61553;48.994;8.940;2024-01-06T11:49:30;8.63;;;4.72;;
32321;SDS011;61553;48.994;8.940;2024-01-06T11:51:56;9.00;;;4.68;;
32321;SDS011;61553;48.994;8.940;2024-01-06T11:54:23;7.80;;;4.47;;
32321;SDS011;61553;48.994;8.940;2024-01-06T11:56:49;9.95;;;4.38;;
32321;SDS011;61553;48.994;8.940;2024-01-06T11:59:14;6.97;;;4.13;;
32321;SDS011;61553;48.994;8.940;2024-01-06T12:01:40;9.45;;;5.00;;
32321;SDS011;61553;48.994;8.940;2024-01-06T12:04:07;6.85;;;3.88;;
32321;SDS011;61553;48.994;8.940;2024-01-06T12:06:33;11.63;;;4.38;;
32321;SDS011;61553;48.994;8.940;2024-01-06T12:09:05;6.93;;;3.88;;
32321;SDS011;61553;48.994;8.940;2024-01-06T12:11:31;7.57;;;4.38;;
32321;SDS011;61553;48.994;8.940;2024-01-06T12:13:57;9.18;;;4.47;;
32321;SDS011;61553;48.994;8.940;2024-01-06T12:16:23;10.70;;;4.40;;
32321;SDS011;61553;48.994;8.940;2024-01-06T12:18:54;7.85;;;4.40;;
32321;SDS011;61553;48.994;8.940;2024-01-06T12:21:24;9.38;;;4.45;;
32321;SDS011;61553;48.994;8.940;2024-01-06T12:23:50;8.75;;;4.20;;
32321;SDS011;61553;48.994;8.940;2024-01-06T12:26:18;8.32;;;5.38;;
32321;SDS011;61553;48.994;8.940;2024-01-06T12:28:45;10.85;;;6.13;;
32321;SDS011;61553;48.994;8.940;2024-01-06T12:31:11;10.30;;;4.80;;
32321;SDS011;61553;48.994;8.940;2024-01-06T12:33:38;9.48;;;4.70;;
32321;SDS011;61553;48.994;8.940;2024-01-06T12:36:06;11.48;;;5.75;;
32321;SDS011;61553;48.994;8.940;2024-01-06T12:38:33;9.73;;;5.57;;
32321;SDS011;61553;48.994;8.940;2024-01-06T12:41:00;10.98;;;4.95;;
32321;SDS011;61553;48.994;8.940;2024-01-06T12:43:25;8.48;;;4.90;;
32321;SDS011;61553;48.994;8.940;2024-01-06T12:45:52;8.15;;;4.63;;
32321;SDS011;61553;48.994;8.940;2024-01-06T12:48:18;51.13;;;20.85;;
32321;SDS011;61553;48.994;8.940;2024-01-06T12:50:44;9.88;;;6.10;;
32321;SDS011;61553;48.994;8.940;2024-01-06T12:53:09;10.75;;;5.03;;
32321;SDS011;61553;48.994;8.940;2024-01-06T12:55:37;9.73;;;5.15;;
32321;SDS011;61553;48.994;8.940;2024-01-06T12:58:02;8.98;;;4.88;;
32321;SDS011;61553;48.994;8.940;2024-01-06T13:00:29;8.05;;;5.30;;
32321;SDS011;61553;48.994;8.940;2024-01-06T13:02:55;7.85;;;4.72;;
32321;SDS011;61553;48.994;8.940;2024-01-06T13:05:21;8.65;;;5.25;;
32321;SDS011;61553;48.994;8.940;2024-01-06T13:07:47;7.82;;;5.20;;
32321;SDS011;61553;48.994;8.940;2024-01-06T13:10:15;10.05;;;6.22;;
32321;SDS011;61553;48.994;8.940;2024-01-06T13:12:41;8.55;;;5.50;;
32321;SDS011;61553;48.994;8.940;2024-01-06T13:15:06;9.45;;;5.30;;
32321;SDS011;61553;48.994;8.940;2024-01-06T13:17:36;9.57;;;5.97;;
32321;SDS011;61553;48.994;8.940;2024-01-06T13:20:05;9.65;;;6.07;;
32321;SDS011;61553;48.994;8.940;2024-01-06T13:22:31;10.88;;;5.60;;
32321;SDS011;61553;48.994;8.940;2024-01-06T13:24:56;9.38;;;6.05;;
32321;SDS011;61553;48.994;8.940;2024-01-06T13:27:24;11.98;;;5.85;;
32321;SDS011;61553;48.994;8.940;2024-01-06T13:29:49;9.65;;;5.82;;
32321;SDS011;61553;48.994;8.940;2024-01-06T13:32:16;10.65;;;6.22;;
32321;SDS011;61553;48.994;8.940;2024-01-06T13:34:44;11.63;;;6.40;;
32321;SDS011;61553;48.994;8.940;2024-01-06T13:37:09;10.73;;;5.65;;
32321;SDS011;61553;48.994;8.940;2024-01-06T13:39:35;12.00;;;6.00;;
32321;SDS011;61553;48.994;8.940;2024-01-06T13:42:01;11.55;;;5.88;;
32321;SDS011;61553;48.994;8.940;2024-01-06T13:44:28;10.07;;;6.10;;
32321;SDS011;61553;48.994;8.940;2024-01-06T13:46:54;13.35;;;6.53;;
32321;SDS011;61553;48.994;8.940;2024-01-06T13:49:21;8.35;;;5.10;;
32321;SDS011;61553;48.994;8.940;2024-01-06T13:51:47;9.85;;;6.07;;
32321;SDS011;61553;48.994;8.940;2024-01-06T13:54:13;9.43;;;5.30;;
32321;SDS011;61553;48.994;8.940;2024-01-06T13:56:39;12.43;;;6.07;;
32321;SDS011;61553;48.994;8.940;2024-01-06T13:59:04;9.32;;;5.57;;
32321;SDS011;61553;48.994;8.940;2024-01-06T14:01:30;11.27;;;6.40;;
32321;SDS011;61553;48.994;8.940;2024-01-06T14:03:56;11.07;;;6.03;;
32321;SDS011;61553;48.994;8.940;2024-01-06T14:06:25;12.60;;;6.63;;
32321;SDS011;61553;48.994;8.940;2024-01-06T14:08:58;9.35;;;6.15;;
32321;SDS011;61553;48.994;8.940;2024-01-06T14:11:24;12.00;;;6.63;;
32321;SDS011;61553;48.994;8.940;2024-01-06T14:13:51;10.18;;;6.10;;
32321;SDS011;61553;48.994;8.940;2024-01-06T14:16:17;10.75;;;6.18;;
32321;SDS011;61553;48.994;8.940;2024-01-06T14:18:43;10.45;;;6.47;;
32321;SDS011;61553;48.994;8.940;2024-01-06T14:21:09;11.55;;;6.38;;
32321;SDS011;61553;48.994;8.940;2024-01-06T14:23:35;9.65;;;6.15;;
32321;SDS011;61553;48.994;8.940;2024-01-06T14:26:01;15.75;;;8.20;;
32321;SDS011;61553;48.994;8.940;2024-01-06T14:28:27;14.30;;;8.10;;
32321;SDS011;61553;48.994;8.940;2024-01-06T14:30:53;10.75;;;7.10;;
32321;SDS011;61553;48.994;8.940;2024-01-06T14:33:19;11.18;;;7.80;;
32321;SDS011;61553;48.994;8.940;2024-01-06T14:35:45;15.25;;;7.35;;
32321;SDS011;61553;48.994;8.940;2024-01-06T14:38:11;13.20;;;7.50;;
32321;SDS011;61553;48.994;8.940;2024-01-06T14:40:37;12.68;;;6.72;;